Time;durP1;ratioP1;P1;durP2;ratioP2;P2;SDS_P1;SDS_P2;PMS_P1;PMS_P2;Temp;Humidity;BMP_temperature;BMP_pressure;BME280_temperature;BME280_humidity;BME280_pressure;Samples;Min_cycle;Max_cycle;Signal;HPM_P1;HPM_P2
2021/12/30 00:01:33;;;;;;;11.53;7.57;;;;;;;10.32;100.00;98669.22;5029440;28;20210;-84
2021/12/30 00:04:02;;;;;;;10.70;6.97;;;;;;;10.37;100.00;98676.84;5030576;28;20205;-84
2021/12/30 00:06:38;;;;;;;10.73;6.10;;;;;;;10.53;100.00;98683.59;5034711;28;20276;-84
2021/12/30 00:09:07;;;;;;;11.03;5.50;;;;;;;10.70;100.00;98685.00;5031605;28;20208;-83
2021/12/30 00:11:36;;;;;;;7.23;4.80;;;;;;;10.81;100.00;98687.75;5034463;28;20214;-83
2021/12/30 00:14:08;;;;;;;5.43;4.43;;;;;;;10.78;100.00;98695.06;5027067;28;20202;-83
2021/12/30 00:16:37;;;;;;;7.77;5.13;;;;;;;10.79;100.00;98694.09;5026753;28;20216;-84
2021/12/30 00:19:06;;;;;;;10.10;5.87;;;;;;;10.77;100.00;98694.22;5034648;28;20313;-84
2021/12/30 00:21:35;;;;;;;13.77;7.00;;;;;;;10.81;100.00;98710.75;5023789;28;20202;-84
2021/12/30 00:24:04;;;;;;;11.87;6.90;;;;;;;10.68;100.00;98718.72;5027274;28;20215;-83
2021/12/30 00:26:35;;;;;;;8.83;5.50;;;;;;;10.71;100.00;98725.59;5030914;28;20216;-84
2021/12/30 00:29:04;;;;;;;9.13;5.63;;;;;;;10.83;100.00;98728.22;5034248;28;20197;-83
2021/12/30 00:31:33;;;;;;;12.10;6.67;;;;;;;10.75;100.00;98727.91;5021119;28;20297;-83
2021/12/30 00:34:02;;;;;;;11.87;6.03;;;;;;;10.78;100.00;98724.19;5024436;28;20197;-84
2021/12/30 00:36:30;;;;;;;11.40;5.77;;;;;;;10.80;100.00;98746.13;5024054;28;20205;-84
2021/12/30 00:38:58;;;;;;;10.43;5.57;;;;;;;10.88;100.00;98746.41;5029143;28;20205;-83
2021/12/30 00:41:27;;;;;;;9.87;4.60;;;;;;;10.90;100.00;98747.16;5033841;28;20226;-84
2021/12/30 00:43:55;;;;;;;8.50;4.33;;;;;;;11.00;100.00;98740.25;5025819;28;20200;-83
2021/12/30 00:46:24;;;;;;;7.33;4.23;;;;;;;11.03;100.00;98747.97;5025966;28;20197;-84
2021/12/30 00:48:54;;;;;;;8.10;4.27;;;;;;;11.05;100.00;98758.47;5031376;28;20284;-84
2021/12/30 00:51:25;;;;;;;8.90;4.67;;;;;;;11.11;100.00;98766.81;4976661;28;20213;-84
2021/12/30 00:53:53;;;;;;;10.50;5.50;;;;;;;11.02;100.00;98771.94;5031008;28;20194;-84
2021/12/30 00:56:22;;;;;;;8.30;4.93;;;;;;;11.13;100.00;98782.63;5030181;28;20220;-83
2021/12/30 00:58:52;;;;;;;8.77;4.77;;;;;;;11.05;100.00;98788.47;5026866;28;20202;-83
2021/12/30 01:01:20;;;;;;;8.33;4.17;;;;;;;11.06;100.00;98781.34;5023263;28;20676;-84
2021/12/30 01:03:49;;;;;;;6.87;4.10;;;;;;;11.09;100.00;98789.06;4980341;28;20269;-84
2021/12/30 01:06:20;;;;;;;7.97;3.83;;;;;;;11.19;100.00;98774.19;5029990;28;20198;-83
2021/12/30 01:08:48;;;;;;;8.73;4.30;;;;;;;11.24;100.00;98781.84;5030791;28;20194;-83
2021/12/30 01:11:20;;;;;;;8.87;4.10;;;;;;;11.22;100.00;98779.31;5022261;28;20220;-83
2021/12/30 01:13:57;;;;;;;12.47;3.50;;;;;;;11.24;100.00;98772.06;5026373;28;20189;-83
2021/12/30 01:16:29;;;;;;;10.50;3.27;;;;;;;11.24;100.00;98768.56;5030705;28;20201;-83
2021/12/30 01:19:03;;;;;;;8.83;3.13;;;;;;;11.21;100.00;98784.72;5029433;28;20225;-83
2021/12/30 01:21:35;;;;;;;11.67;4.03;;;;;;;11.28;100.00;98781.47;5027437;28;20208;-82
2021/12/30 01:24:04;;;;;;;8.23;3.07;;;;;;;11.32;100.00;98784.78;4984154;28;20206;-83
2021/12/30 01:26:36;;;;;;;12.00;3.37;;;;;;;11.28;100.00;98797.38;4989569;28;20202;-83
2021/12/30 01:29:05;;;;;;;9.63;3.10;;;;;;;11.40;100.00;98803.63;4956420;28;20199;-83
2021/12/30 01:31:33;;;;;;;13.40;2.70;;;;;;;11.30;100.00;98800.81;4988359;28;20357;-84
2021/12/30 01:34:22;;;;;;;10.70;3.13;;;;;;;11.43;100.00;98798.94;4989857;28;20210;-83
2021/12/30 01:36:52;;;;;;;12.83;3.30;;;;;;;11.51;100.00;98821.41;4984416;28;20288;-83
2021/12/30 01:39:21;;;;;;;14.10;3.33;;;;;;;11.45;100.00;98823.53;4983444;28;20206;-84
2021/12/30 01:41:51;;;;;;;10.53;3.10;;;;;;;11.55;100.00;98821.06;5003124;28;20217;-83
2021/12/30 01:44:20;;;;;;;12.67;3.03;;;;;;;11.43;100.00;98825.47;5033062;28;20267;-83
2021/12/30 01:46:50;;;;;;;11.80;2.80;;;;;;;11.42;100.00;98834.38;5026118;28;20202;-83
2021/12/30 01:49:21;;;;;;;13.97;2.90;;;;;;;11.47;100.00;98837.53;5030014;28;20281;-83
2021/12/30 01:51:53;;;;;;;9.33;2.83;;;;;;;11.52;100.00;98825.75;5025256;28;20301;-83
2021/12/30 01:54:24;;;;;;;10.37;3.03;;;;;;;11.46;100.00;98830.53;5034152;28;20204;-83
2021/12/30 01:57:00;;;;;;;12.70;3.77;;;;;;;11.45;100.00;98828.00;5036740;28;20186;-84
2021/12/30 01:59:29;;;;;;;10.23;2.63;;;;;;;11.39;100.00;98829.31;5034136;28;20193;-83
2021/12/30 02:01:57;;;;;;;9.03;2.67;;;;;;;11.33;100.00;98836.84;5033419;28;20194;-83
2021/12/30 02:04:34;;;;;;;9.40;2.73;;;;;;;11.43;100.00;98844.00;5036925;28;20189;-83
2021/12/30 02:07:06;;;;;;;12.00;2.90;;;;;;;11.50;100.00;98843.59;5033999;28;20208;-83
2021/12/30 02:09:34;;;;;;;15.67;3.33;;;;;;;11.44;100.00;98835.09;5033922;28;20193;-84
2021/12/30 02:12:04;;;;;;;11.27;3.17;;;;;;;11.45;100.00;98833.28;5033668;28;20285;-83
2021/12/30 02:14:34;;;;;;;13.97;3.37;;;;;;;11.29;100.00;98849.50;5025936;28;20228;-83
2021/12/30 02:17:04;;;;;;;11.87;2.93;;;;;;;11.29;100.00;98848.59;5031086;28;20223;-83
2021/12/30 02:19:34;;;;;;;12.93;2.83;;;;;;;11.33;100.00;98847.44;4999096;28;20244;-83
2021/12/30 02:22:04;;;;;;;15.57;3.30;;;;;;;11.32;100.00;98851.06;5033571;28;20220;-84
2021/12/30 02:24:32;;;;;;;16.13;3.40;;;;;;;11.26;100.00;98860.28;5031996;28;20201;-84
2021/12/30 02:27:05;;;;;;;13.13;3.53;;;;;;;11.20;100.00;98851.94;5035156;28;20228;-81
2021/12/30 02:29:34;;;;;;;14.50;2.87;;;;;;;11.22;100.00;98850.03;5052729;28;20206;-83
2021/12/30 02:32:06;;;;;;;12.63;3.03;;;;;;;11.38;100.00;98863.84;5034941;28;20225;-83
2021/12/30 02:34:38;;;;;;;9.80;2.90;;;;;;;11.30;100.00;98867.09;5033538;28;20265;-83
2021/12/30 02:37:09;;;;;;;10.57;2.67;;;;;;;11.28;100.00;98870.78;5029157;28;20198;-83
2021/12/30 02:39:39;;;;;;;10.90;3.23;;;;;;;11.23;100.00;98881.72;5033125;28;20212;-83
2021/12/30 02:42:09;;;;;;;13.67;3.00;;;;;;;11.25;100.00;98871.84;5028009;28;20206;-83
2021/12/30 02:44:37;;;;;;;8.27;2.80;;;;;;;11.21;100.00;98878.34;5028498;28;20200;-83
2021/12/30 02:47:06;;;;;;;10.47;2.90;;;;;;;11.17;100.00;98877.69;5027620;28;20201;-84
2021/12/30 02:49:35;;;;;;;11.90;3.03;;;;;;;11.13;100.00;98883.34;5027287;28;20194;-83
2021/12/30 02:52:03;;;;;;;10.23;2.93;;;;;;;11.10;100.00;98886.22;5029345;28;20221;-83
2021/12/30 02:54:34;;;;;;;9.63;3.33;;;;;;;11.10;100.00;98897.66;4996353;28;20676;-83
2021/12/30 02:57:03;;;;;;;14.90;3.50;;;;;;;11.09;100.00;98895.09;4931358;29;20201;-83
2021/12/30 02:59:32;;;;;;;12.53;3.03;;;;;;;11.08;100.00;98890.75;4930213;29;20205;-83
2021/12/30 03:02:01;;;;;;;10.30;2.70;;;;;;;11.15;100.00;98902.63;4936851;29;20225;-83
2021/12/30 03:04:30;;;;;;;11.27;3.00;;;;;;;11.02;100.00;98893.84;4889283;29;20645;-83
2021/12/30 03:06:59;;;;;;;12.90;3.10;;;;;;;11.06;100.00;98908.56;4931073;29;20212;-83
2021/12/30 03:09:27;;;;;;;9.87;2.90;;;;;;;11.14;100.00;98911.53;4932516;29;20205;-82
2021/12/30 03:11:59;;;;;;;9.57;3.30;;;;;;;11.02;100.00;98912.41;4932946;29;20228;-83
2021/12/30 03:14:29;;;;;;;13.73;3.10;;;;;;;11.00;100.00;98917.81;4947897;28;20208;-85
2021/12/30 03:16:57;;;;;;;10.43;3.30;;;;;;;11.08;100.00;98917.25;5029124;28;20194;-83
2021/12/30 03:19:25;;;;;;;10.77;3.20;;;;;;;11.04;100.00;98919.28;5028416;28;20406;-83
2021/12/30 03:21:55;;;;;;;11.33;3.10;;;;;;;10.99;100.00;98909.94;5032407;28;20198;-84
2021/12/30 03:24:23;;;;;;;11.50;3.07;;;;;;;11.05;100.00;98913.03;5031219;28;20228;-83
2021/12/30 03:26:52;;;;;;;9.63;3.03;;;;;;;11.04;100.00;98889.28;5035276;28;20648;-83
2021/12/30 03:29:22;;;;;;;12.23;2.90;;;;;;;10.97;100.00;98907.41;5027529;28;20244;-83
2021/12/30 03:31:52;;;;;;;10.23;3.23;;;;;;;10.98;100.00;98905.59;5030531;28;20217;-82
2021/12/30 03:34:20;;;;;;;11.27;3.17;;;;;;;10.98;100.00;98898.50;5032158;28;20665;-82
2021/12/30 03:36:49;;;;;;;12.63;3.63;;;;;;;10.95;100.00;98890.78;5028400;28;20200;-83
2021/12/30 03:39:17;;;;;;;9.40;3.10;;;;;;;11.03;100.00;98895.53;5028125;28;20198;-82
2021/12/30 03:41:48;;;;;;;10.20;2.87;;;;;;;11.02;100.00;98900.00;5028381;28;20244;-83
2021/12/30 03:44:17;;;;;;;11.50;2.77;;;;;;;11.07;100.00;98915.56;5035135;28;20205;-83
2021/12/30 03:46:47;;;;;;;13.20;2.77;;;;;;;10.95;100.00;98921.72;5025781;28;20201;-83
2021/12/30 03:49:15;;;;;;;13.60;3.07;;;;;;;10.88;100.00;98921.28;5028154;28;20202;-82
2021/12/30 03:51:44;;;;;;;10.73;2.87;;;;;;;10.99;100.00;98918.75;5034690;28;20193;-83
2021/12/30 03:54:12;;;;;;;13.47;3.30;;;;;;;10.86;100.00;98932.00;4996616;28;20201;-82
2021/12/30 03:56:40;;;;;;;9.03;2.73;;;;;;;10.86;100.00;98925.84;5032051;28;20248;-83
2021/12/30 03:59:09;;;;;;;10.90;2.53;;;;;;;10.89;100.00;98915.88;5031981;28;20185;-83
2021/12/30 04:01:38;;;;;;;8.13;2.87;;;;;;;10.95;100.00;98916.44;5023835;28;20205;-82
2021/12/30 04:04:08;;;;;;;10.63;2.77;;;;;;;10.84;100.00;98915.38;5031734;28;20201;-83
2021/12/30 04:06:37;;;;;;;12.37;3.07;;;;;;;10.81;100.00;98915.59;4973760;28;20251;-83
2021/12/30 04:09:07;;;;;;;12.47;2.77;;;;;;;10.89;100.00;98920.34;4969591;28;20208;-83
2021/12/30 04:11:37;;;;;;;15.77;2.90;;;;;;;10.86;100.00;98926.69;4969201;28;20203;-86
2021/12/30 04:14:06;;;;;;;12.43;2.53;;;;;;;10.83;100.00;98939.31;4923295;28;20203;-82
2021/12/30 04:16:36;;;;;;;9.00;2.70;;;;;;;10.92;100.00;98943.16;4968837;28;20198;-83
2021/12/30 04:19:05;;;;;;;12.87;2.70;;;;;;;10.91;100.00;98952.06;4967599;28;20231;-83
2021/12/30 04:21:35;;;;;;;9.13;2.53;;;;;;;10.95;100.00;98958.81;4973733;28;20207;-83
2021/12/30 04:24:04;;;;;;;10.83;2.73;;;;;;;11.00;100.00;98968.16;4973571;28;20203;-83
2021/12/30 04:26:32;;;;;;;11.20;2.77;;;;;;;10.99;100.00;98970.91;4932228;29;21119;-83
2021/12/30 04:29:01;;;;;;;12.33;2.90;;;;;;;11.01;100.00;98975.16;4935098;29;20244;-82
2021/12/30 04:31:29;;;;;;;13.13;3.03;;;;;;;11.04;100.00;98966.16;4964546;28;20641;-85
2021/12/30 04:33:59;;;;;;;7.87;2.70;;;;;;;11.11;100.00;98967.41;4988222;28;20234;-83
2021/12/30 04:36:29;;;;;;;9.33;2.43;;;;;;;11.16;100.00;98970.59;4954256;28;20207;-83
2021/12/30 04:38:59;;;;;;;9.57;2.23;;;;;;;11.03;100.00;98970.59;4986190;28;20202;-82
2021/12/30 04:41:27;;;;;;;12.33;2.80;;;;;;;11.04;100.00;98971.44;4990039;28;20195;-83
2021/12/30 04:43:55;;;;;;;9.80;2.40;;;;;;;11.07;100.00;98977.38;4992570;28;20199;-83
2021/12/30 04:46:24;;;;;;;11.33;3.37;;;;;;;11.14;100.00;98986.59;4986681;28;20193;-83
2021/12/30 04:48:54;;;;;;;10.50;2.40;;;;;;;11.08;100.00;98991.47;4985932;28;20453;-82
2021/12/30 04:51:22;;;;;;;11.93;2.30;;;;;;;11.05;100.00;98997.84;5010693;28;20222;-82
2021/12/30 04:53:54;;;;;;;10.13;2.50;;;;;;;11.09;100.00;98995.81;5027139;28;20252;-82
2021/12/30 04:56:25;;;;;;;9.73;2.30;;;;;;;11.11;100.00;98999.22;5033897;28;20652;-82
2021/12/30 04:58:54;;;;;;;10.40;2.37;;;;;;;11.09;100.00;98983.41;5028548;28;20206;-83
2021/12/30 05:01:22;;;;;;;9.87;2.33;;;;;;;11.06;100.00;98980.13;5030184;28;20198;-82
2021/12/30 05:03:51;;;;;;;8.03;2.40;;;;;;;11.07;100.00;98982.66;5029811;28;20248;-83
2021/12/30 05:06:19;;;;;;;8.30;2.00;;;;;;;11.03;100.00;98975.91;5031057;28;20189;-82
2021/12/30 05:08:48;;;;;;;12.80;2.20;;;;;;;11.08;100.00;98986.16;5028049;28;20190;-83
2021/12/30 05:11:22;;;;;;;7.60;2.00;;;;;;;11.03;100.00;98986.50;5025488;28;20664;-83
2021/12/30 05:13:55;;;;;;;10.37;2.37;;;;;;;11.01;100.00;98984.91;5028477;28;20213;-83
2021/12/30 05:16:25;;;;;;;8.47;2.70;;;;;;;11.15;100.00;98980.34;5026277;28;20190;-83
2021/12/30 05:18:57;;;;;;;15.53;7.00;;;;;;;11.15;100.00;98971.53;5033327;28;20226;-82
2021/12/30 05:21:26;;;;;;;12.13;4.27;;;;;;;11.16;100.00;98979.38;5026460;28;20224;-82
2021/12/30 05:23:55;;;;;;;10.50;2.77;;;;;;;11.07;100.00;98976.53;5033575;28;20201;-82
2021/12/30 05:26:27;;;;;;;10.00;2.23;;;;;;;11.07;100.00;98972.06;5027062;28;20281;-83
2021/12/30 05:29:00;;;;;;;9.57;2.17;;;;;;;11.12;100.00;98985.03;5027309;28;20236;-83
2021/12/30 05:31:29;;;;;;;8.47;2.30;;;;;;;11.06;100.00;98985.44;5033906;28;20275;-84
2021/12/30 05:33:57;;;;;;;12.00;2.50;;;;;;;11.07;100.00;98987.13;5037480;28;20288;-83
2021/12/30 05:36:26;;;;;;;8.43;2.23;;;;;;;11.08;100.00;98989.66;5027869;28;20210;-82
2021/12/30 05:38:54;;;;;;;11.13;2.60;;;;;;;11.02;100.00;98995.41;5036909;28;20186;-80
2021/12/30 05:41:26;;;;;;;10.27;2.33;;;;;;;11.13;100.00;99000.81;5049109;28;20198;-82
2021/12/30 05:43:54;;;;;;;10.70;2.70;;;;;;;11.04;100.00;99001.44;5031714;28;20247;-82
2021/12/30 05:46:25;;;;;;;11.73;2.70;;;;;;;10.94;100.00;99000.38;5031566;28;20206;-82
2021/12/30 05:48:56;;;;;;;14.97;2.67;;;;;;;10.79;100.00;99004.91;5031519;28;20209;-83
2021/12/30 05:51:24;;;;;;;9.77;2.83;;;;;;;10.81;100.00;99003.00;5031754;28;20201;-82
2021/12/30 05:53:53;;;;;;;10.20;2.80;;;;;;;10.79;100.00;99004.03;5033448;28;20217;-82
2021/12/30 05:56:21;;;;;;;10.77;2.73;;;;;;;10.86;100.00;99003.53;5036800;28;20201;-82
2021/12/30 05:58:49;;;;;;;6.97;2.63;;;;;;;10.84;100.00;99010.75;5031253;28;20273;-83
2021/12/30 06:01:17;;;;;;;9.80;3.03;;;;;;;10.87;100.00;99023.78;5035687;28;20194;-83
2021/12/30 06:03:53;;;;;;;8.77;2.30;;;;;;;10.91;100.00;99026.25;5027593;28;20208;-83
2021/12/30 06:06:24;;;;;;;10.17;2.40;;;;;;;10.86;100.00;99032.69;5036574;28;20193;-83
2021/12/30 06:08:53;;;;;;;8.53;2.27;;;;;;;10.89;100.00;99021.03;5029172;28;20202;-84
2021/12/30 06:11:21;;;;;;;6.77;2.60;;;;;;;10.96;100.00;99030.25;5033857;28;20190;-83
2021/12/30 06:13:49;;;;;;;7.93;2.40;;;;;;;11.02;100.00;99035.16;5030299;28;20213;-85
2021/12/30 06:16:19;;;;;;;11.77;3.17;;;;;;;10.97;100.00;99042.56;5032909;28;20194;-83
2021/12/30 06:18:49;;;;;;;9.23;2.80;;;;;;;11.01;100.00;99044.06;5036190;28;20276;-84
2021/12/30 06:21:17;;;;;;;10.30;2.50;;;;;;;11.09;100.00;99054.97;5036631;28;20201;-83
2021/12/30 06:23:45;;;;;;;12.87;2.93;;;;;;;11.01;100.00;99049.38;5036143;28;20194;-84
2021/12/30 06:26:13;;;;;;;11.67;4.17;;;;;;;10.79;100.00;99060.53;5027124;28;20200;-83
2021/12/30 06:28:42;;;;;;;12.90;5.30;;;;;;;10.84;100.00;99062.88;5029274;28;20201;-83
2021/12/30 06:31:10;;;;;;;12.80;4.17;;;;;;;10.88;100.00;99061.72;5030257;28;20200;-83
2021/12/30 06:33:40;;;;;;;13.20;3.57;;;;;;;10.82;100.00;99070.94;5030228;28;20218;-84
2021/12/30 06:36:10;;;;;;;11.90;3.17;;;;;;;10.72;100.00;99066.38;5022322;28;20216;-84
2021/12/30 06:38:40;;;;;;;9.63;3.23;;;;;;;10.73;100.00;99062.75;5029524;28;20664;-84
2021/12/30 06:41:10;;;;;;;12.07;3.70;;;;;;;10.64;100.00;99066.00;5030828;28;20197;-85
2021/12/30 06:43:39;;;;;;;8.70;3.17;;;;;;;10.72;100.00;99058.41;5030396;28;20248;-84
2021/12/30 06:46:09;;;;;;;9.47;2.93;;;;;;;10.55;100.00;99060.38;5027778;28;20214;-84
2021/12/30 06:48:38;;;;;;;8.30;2.73;;;;;;;10.55;100.00;99060.38;5036278;28;20198;-84
2021/12/30 06:51:07;;;;;;;12.00;3.43;;;;;;;10.46;100.00;99062.75;5036557;28;20216;-84
2021/12/30 06:53:37;;;;;;;13.10;3.70;;;;;;;10.40;100.00;99058.69;5035638;28;20221;-84
2021/12/30 06:56:05;;;;;;;12.80;4.83;;;;;;;10.37;100.00;99056.25;5032978;28;20277;-83
2021/12/30 06:58:35;;;;;;;14.60;4.80;;;;;;;10.28;100.00;99059.50;5031744;28;20194;-83
2021/12/30 07:01:04;;;;;;;13.57;5.10;;;;;;;10.35;100.00;99058.16;5026350;28;20206;-83
2021/12/30 07:03:33;;;;;;;11.13;4.90;;;;;;;10.45;100.00;99058.41;5035673;28;20692;-83
2021/12/30 07:06:01;;;;;;;13.93;5.07;;;;;;;10.52;100.00;99055.28;5028633;28;20256;-84
2021/12/30 07:08:29;;;;;;;15.63;5.83;;;;;;;10.40;100.00;99061.34;5032291;28;20202;-83
2021/12/30 07:10:59;;;;;;;18.27;6.63;;;;;;;10.54;100.00;99071.06;5029788;28;20197;-84
2021/12/30 07:13:28;;;;;;;17.83;7.63;;;;;;;10.50;100.00;99067.75;5028809;28;20202;-84
2021/12/30 07:15:57;;;;;;;17.37;7.57;;;;;;;10.44;100.00;99069.97;5026385;28;20201;-83
2021/12/30 07:18:25;;;;;;;16.77;7.67;;;;;;;10.49;100.00;99079.28;5029651;28;20257;-83
2021/12/30 07:20:53;;;;;;;17.17;7.67;;;;;;;10.44;100.00;99083.19;5035213;28;20190;-84
2021/12/30 07:23:21;;;;;;;19.77;8.23;;;;;;;10.60;100.00;99076.78;5026058;28;20212;-84
2021/12/30 07:25:50;;;;;;;14.67;7.60;;;;;;;10.53;100.00;99078.16;5024496;28;20194;-83
2021/12/30 07:28:20;;;;;;;16.60;11.17;;;;;;;10.65;100.00;99078.31;5026467;28;20200;-83
2021/12/30 07:30:48;;;;;;;19.83;8.60;;;;;;;10.62;100.00;99086.47;5026637;28;20193;-83
2021/12/30 07:33:16;;;;;;;17.13;8.50;;;;;;;10.66;100.00;99094.09;5029173;28;20197;-83
2021/12/30 07:35:46;;;;;;;19.60;8.90;;;;;;;10.69;100.00;99098.31;5032135;28;20220;-82
2021/12/30 07:38:14;;;;;;;13.83;8.77;;;;;;;10.67;100.00;99101.09;5034832;28;20194;-82
2021/12/30 07:40:43;;;;;;;15.50;8.57;;;;;;;10.86;100.00;99095.44;5028070;28;20197;-83
2021/12/30 07:43:11;;;;;;;16.47;8.50;;;;;;;10.85;100.00;99099.88;5032149;28;20194;-83
2021/12/30 07:45:41;;;;;;;18.27;9.73;;;;;;;10.76;100.00;99104.94;5028105;28;20202;-83
2021/12/30 07:48:09;;;;;;;16.83;8.93;;;;;;;10.84;100.00;99105.28;5026622;28;20205;-82
2021/12/30 07:50:38;;;;;;;20.47;12.00;;;;;;;10.84;100.00;99111.44;5029676;28;20206;-83
2021/12/30 07:53:06;;;;;;;16.10;10.37;;;;;;;10.85;100.00;99110.47;5025869;28;20201;-82
2021/12/30 07:55:35;;;;;;;18.63;11.20;;;;;;;10.92;100.00;99104.78;5027502;28;20245;-82
2021/12/30 07:58:04;;;;;;;18.87;10.30;;;;;;;10.92;100.00;99102.97;5028945;28;20225;-82
2021/12/30 08:00:32;;;;;;;17.97;10.00;;;;;;;10.87;100.00;99095.31;5026289;28;20269;-82
2021/12/30 08:03:02;;;;;;;17.67;9.33;;;;;;;10.97;100.00;99094.72;5031523;28;20189;-82
2021/12/30 08:05:30;;;;;;;15.47;9.33;;;;;;;10.88;100.00;99112.06;5034400;28;20200;-82
2021/12/30 08:07:59;;;;;;;15.23;9.63;;;;;;;10.94;100.00;99113.47;5034314;28;20446;-82
2021/12/30 08:10:29;;;;;;;16.03;8.77;;;;;;;10.82;100.00;99102.75;5030300;28;20202;-82
2021/12/30 08:12:58;;;;;;;18.93;10.77;;;;;;;10.79;100.00;99108.22;5035158;28;20201;-82
2021/12/30 08:15:26;;;;;;;15.43;10.50;;;;;;;10.85;100.00;99112.28;5035596;28;20221;-85
2021/12/30 08:17:55;;;;;;;17.70;10.60;;;;;;;10.83;100.00;99114.19;5034377;28;20230;-84
2021/12/30 08:20:27;;;;;;;16.97;10.27;;;;;;;10.89;100.00;99119.06;5039124;28;20196;-82
2021/12/30 08:22:57;;;;;;;16.40;11.13;;;;;;;10.94;100.00;99118.78;5032980;28;20198;-82
2021/12/30 08:25:26;;;;;;;18.03;11.73;;;;;;;10.81;100.00;99118.75;5029041;28;20204;-82
2021/12/30 08:27:55;;;;;;;15.47;10.80;;;;;;;10.98;100.00;99122.91;5034661;28;20267;-82
2021/12/30 08:30:24;;;;;;;17.87;10.87;;;;;;;11.09;100.00;99128.34;5032611;28;20190;-82
2021/12/30 08:32:52;;;;;;;14.23;9.50;;;;;;;11.14;100.00;99132.41;5026352;28;20253;-85
2021/12/30 08:35:22;;;;;;;13.83;9.53;;;;;;;11.17;100.00;99136.63;5034951;28;20218;-82
2021/12/30 08:37:54;;;;;;;17.80;9.87;;;;;;;11.24;100.00;99139.75;5028077;28;20205;-82
2021/12/30 08:40:22;;;;;;;18.60;12.27;;;;;;;11.04;100.00;99135.75;5030194;28;20242;-83
2021/12/30 08:42:50;;;;;;;16.50;11.53;;;;;;;10.96;100.00;99136.25;5035132;28;20190;-84
2021/12/30 08:45:19;;;;;;;16.47;12.03;;;;;;;10.85;100.00;99142.28;5025920;28;20201;-82
2021/12/30 08:47:48;;;;;;;20.63;13.20;;;;;;;10.83;100.00;99152.13;5029791;28;20174;-82
2021/12/30 08:50:17;;;;;;;22.50;13.47;;;;;;;10.87;100.00;99153.63;5046934;28;20181;-80
2021/12/30 08:52:46;;;;;;;21.70;13.77;;;;;;;10.97;100.00;99161.81;5036872;28;20202;-81
2021/12/30 08:55:17;;;;;;;22.53;12.93;;;;;;;11.02;100.00;99159.72;5032811;28;20213;-84
2021/12/30 08:57:47;;;;;;;16.97;11.80;;;;;;;11.21;100.00;99166.47;5029767;28;20253;-82
2021/12/30 09:00:19;;;;;;;18.90;13.27;;;;;;;11.13;100.00;99162.50;5033712;28;20190;-82
2021/12/30 09:02:47;;;;;;;19.80;12.70;;;;;;;11.22;100.00;99161.06;5031396;28;20186;-82
2021/12/30 09:05:16;;;;;;;20.03;12.87;;;;;;;11.25;100.00;99171.44;5033823;28;20193;-82
2021/12/30 09:07:46;;;;;;;16.80;12.13;;;;;;;11.39;100.00;99168.75;5029211;28;20190;-82
2021/12/30 09:10:19;;;;;;;17.10;12.57;;;;;;;11.40;100.00;99177.53;5024602;28;20205;-82
2021/12/30 09:12:49;;;;;;;17.27;12.83;;;;;;;11.55;100.00;99183.59;5030018;28;20240;-85
2021/12/30 09:15:20;;;;;;;18.27;12.30;;;;;;;11.57;100.00;99185.19;5029299;28;20221;-82
2021/12/30 09:17:50;;;;;;;22.17;12.83;;;;;;;11.65;100.00;99182.03;5027342;28;20749;-84
2021/12/30 09:20:20;;;;;;;17.00;11.70;;;;;;;11.71;100.00;99192.22;5033574;28;20277;-83
2021/12/30 09:22:50;;;;;;;16.47;11.93;;;;;;;11.79;100.00;99192.56;5024146;28;20205;-82
2021/12/30 09:25:23;;;;;;;19.23;12.53;;;;;;;11.83;100.00;99198.53;5033418;28;20228;-84
2021/12/30 09:27:53;;;;;;;17.33;12.63;;;;;;;11.88;100.00;99197.28;5030534;28;20277;-84
2021/12/30 09:30:23;;;;;;;16.77;11.37;;;;;;;11.97;100.00;99195.78;5023232;28;20201;-84
2021/12/30 09:32:54;;;;;;;17.70;11.47;;;;;;;12.02;100.00;99198.97;5026783;28;20293;-84
2021/12/30 09:35:23;;;;;;;16.57;10.07;;;;;;;12.04;100.00;99202.34;5029205;28;20220;-85
2021/12/30 09:37:53;;;;;;;15.63;10.53;;;;;;;12.21;100.00;99219.78;5033572;28;20208;-85
2021/12/30 09:40:23;;;;;;;16.40;10.40;;;;;;;12.30;100.00;99217.31;5026156;28;20333;-85
2021/12/30 09:43:00;;;;;;;14.63;9.77;;;;;;;12.40;100.00;99216.69;5033490;28;20252;-85
2021/12/30 09:45:30;;;;;;;15.47;10.63;;;;;;;12.41;100.00;99221.88;5025032;28;20220;-84
2021/12/30 09:48:00;;;;;;;15.20;10.63;;;;;;;12.54;100.00;99211.22;4984442;28;20240;-85
2021/12/30 09:50:32;;;;;;;16.23;10.00;;;;;;;12.64;100.00;99214.91;5026153;28;20185;-85
2021/12/30 09:53:01;;;;;;;20.87;18.67;;;;;;;12.67;100.00;99217.38;5030587;28;20190;-85
2021/12/30 09:55:32;;;;;;;16.47;10.53;;;;;;;12.86;100.00;99212.44;5030372;28;20222;-85
2021/12/30 09:58:00;;;;;;;10.17;6.90;;;;;;;12.97;100.00;99219.63;5026550;28;20248;-85
2021/12/30 10:00:30;;;;;;;10.50;7.27;;;;;;;12.85;100.00;99215.22;5027881;28;20186;-85
2021/12/30 10:03:02;;;;;;;7.90;6.07;;;;;;;12.92;100.00;99221.75;5028933;28;20198;-85
2021/12/30 10:05:33;;;;;;;8.10;5.03;;;;;;;13.09;100.00;99205.44;4972245;28;20196;-85
2021/12/30 10:08:11;;;;;;;7.60;6.67;;;;;;;13.08;100.00;99208.22;4970203;28;20200;-85
2021/12/30 10:10:45;;;;;;;7.57;4.73;;;;;;;13.17;100.00;99220.81;4966704;28;20202;-85
2021/12/30 10:13:23;;;;;;;8.90;5.40;;;;;;;13.15;100.00;99218.28;4967344;28;20213;-85
2021/12/30 10:15:53;;;;;;;7.77;5.20;;;;;;;13.27;100.00;99223.69;4966331;28;20312;-84
2021/12/30 10:18:24;;;;;;;2.10;1.77;;;;;;;13.53;100.00;99217.28;4924007;28;20703;-85
2021/12/30 10:20:52;;;;;;;0.60;0.60;;;;;;;13.90;100.00;99217.16;4969033;28;20204;-85
2021/12/30 10:23:23;;;;;;;1.70;0.50;;;;;;;14.07;100.00;99232.66;4997446;28;20213;-85
2021/12/30 10:25:54;;;;;;;0.60;0.50;;;;;;;14.13;100.00;99218.03;5027573;28;20213;-84
2021/12/30 10:28:30;;;;;;;0.53;0.53;;;;;;;14.19;100.00;99218.41;5032628;28;20198;-84
2021/12/30 10:31:00;;;;;;;0.47;0.40;;;;;;;14.33;100.00;99214.66;5028231;28;20255;-85
2021/12/30 10:33:31;;;;;;;0.53;0.40;;;;;;;14.39;100.00;99214.19;5034730;28;20205;-84
2021/12/30 10:35:59;;;;;;;1.43;0.70;;;;;;;14.32;100.00;99215.63;5036053;28;20229;-84
2021/12/30 10:38:33;;;;;;;1.33;0.50;;;;;;;14.43;100.00;99206.78;5029018;28;20190;-84
2021/12/30 10:41:04;;;;;;;2.27;1.40;;;;;;;14.33;100.00;99193.34;5026265;28;20648;-85
2021/12/30 10:43:44;;;;;;;0.83;0.37;;;;;;;14.44;100.00;99206.66;5025750;28;20194;-83
2021/12/30 10:46:16;;;;;;;0.40;0.40;;;;;;;14.53;100.00;99199.78;5030950;28;20194;-85
2021/12/30 10:48:58;;;;;;;0.70;0.53;;;;;;;14.48;100.00;99200.16;5029596;28;20213;-85
2021/12/30 10:51:34;;;;;;;1.23;0.40;;;;;;;14.59;100.00;99183.31;5031691;28;20202;-84
2021/12/30 10:54:16;;;;;;;0.30;0.30;;;;;;;14.63;100.00;99192.75;5035418;28;20208;-85
2021/12/30 10:57:02;;;;;;;0.30;0.30;;;;;;;14.58;100.00;99182.47;5033317;28;20694;-84
2021/12/30 10:59:32;;;;;;;0.77;0.47;;;;;;;14.64;100.00;99193.59;5029953;28;20198;-84
2021/12/30 11:02:08;;;;;;;0.67;0.50;;;;;;;14.77;100.00;99181.84;5036891;28;20265;-84
2021/12/30 11:04:39;;;;;;;0.40;0.40;;;;;;;14.72;100.00;99184.00;5030936;28;20240;-85
2021/12/30 11:07:10;;;;;;;1.03;0.30;;;;;;;14.82;100.00;99200.97;5032981;28;20206;-84
2021/12/30 11:09:46;;;;;;;0.90;0.37;;;;;;;14.75;100.00;99186.41;5031028;28;20280;-84
2021/12/30 11:12:17;;;;;;;0.60;0.40;;;;;;;14.86;100.00;99185.53;5030551;28;20201;-84
2021/12/30 11:14:45;;;;;;;0.57;0.30;;;;;;;14.76;100.00;99195.25;5032326;28;20210;-83
2021/12/30 11:17:17;;;;;;;1.00;0.60;;;;;;;14.83;100.00;99186.66;5032224;28;20224;-84
2021/12/30 11:19:52;;;;;;;0.57;0.50;;;;;;;14.70;100.00;99175.28;5011075;28;20247;-84
2021/12/30 11:22:22;;;;;;;0.87;0.50;;;;;;;14.67;100.00;99180.88;5010218;28;20206;-84
2021/12/30 11:24:52;;;;;;;0.80;0.60;;;;;;;14.72;100.00;99178.69;5005736;28;20206;-85
2021/12/30 11:27:24;;;;;;;0.50;0.50;;;;;;;14.70;100.00;99179.78;5013543;28;20645;-84
2021/12/30 11:29:55;;;;;;;0.70;0.70;;;;;;;14.69;100.00;99178.09;5004271;28;20217;-84
2021/12/30 11:32:28;;;;;;;0.83;0.67;;;;;;;14.78;100.00;99188.00;4997644;28;20202;-84